createdAt,value
2017-09-09T00:02:13.608Z,5.00
2017-09-09T00:07:16.213Z,5.97
2017-09-09T00:12:18.845Z,6.10
2017-09-09T00:17:21.445Z,5.70
2017-09-09T00:22:24.050Z,6.47
2017-09-09T00:27:27.426Z,6.47
2017-09-09T00:32:30.036Z,6.87
2017-09-09T00:37:32.637Z,6.70
2017-09-09T00:42:35.249Z,6.33
2017-09-09T00:47:38.606Z,7.13
2017-09-09T00:52:41.235Z,6.37
2017-09-09T00:57:44.591Z,7.30
2017-09-09T01:02:47.961Z,7.00
2017-09-09T01:07:50.570Z,6.70
2017-09-09T01:12:53.196Z,6.53
2017-09-09T01:17:56.550Z,5.90
2017-09-09T01:22:59.145Z,6.73
2017-09-09T01:28:01.806Z,7.77
2017-09-09T01:33:04.508Z,6.87
2017-09-09T01:38:07.881Z,7.87
2017-09-09T01:43:10.510Z,7.17
2017-09-09T01:48:13.120Z,8.20
2017-09-09T01:53:15.709Z,7.70
2017-09-09T01:58:18.313Z,8.53
2017-09-09T02:03:20.903Z,7.97
2017-09-09T02:08:23.547Z,7.30
2017-09-09T02:13:26.189Z,8.30
2017-09-09T02:18:28.793Z,8.13
2017-09-09T02:23:31.430Z,8.07
2017-09-09T02:28:34.801Z,7.53
2017-09-09T02:33:37.432Z,7.90
2017-09-09T02:38:40.024Z,7.60
2017-09-09T02:43:42.642Z,8.37
2017-09-09T02:48:46.018Z,8.80
2017-09-09T02:53:48.641Z,7.87
2017-09-09T02:58:51.262Z,8.70
2017-09-09T03:03:53.862Z,7.77
2017-09-09T03:08:57.252Z,8.73
2017-09-09T03:13:59.909Z,8.37
2017-09-09T03:19:02.568Z,7.00
2017-09-09T03:24:05.181Z,8.80
2017-09-09T03:29:08.565Z,8.57
2017-09-09T03:34:11.174Z,9.00
2017-09-09T03:39:13.799Z,9.30
2017-09-09T03:44:17.155Z,13.63
2017-09-09T03:49:19.821Z,9.17
2017-09-09T03:54:23.200Z,9.30
2017-09-09T03:59:25.817Z,9.27
2017-09-09T04:04:28.449Z,9.30
2017-09-09T04:09:31.049Z,9.10
2017-09-09T04:14:34.405Z,8.73
2017-09-09T04:19:37.025Z,10.00
2017-09-09T04:24:39.650Z,9.13
2017-09-09T04:29:43.010Z,10.03
2017-09-09T04:34:45.608Z,9.07
2017-09-09T04:39:48.202Z,10.00
2017-09-09T04:44:50.789Z,9.90
2017-09-09T04:49:53.394Z,10.93
2017-09-09T04:54:55.992Z,10.27
2017-09-09T04:59:58.602Z,10.03
2017-09-09T05:05:01.991Z,9.57
2017-09-09T05:10:05.389Z,10.90
2017-09-09T05:15:08.076Z,9.97
2017-09-09T05:20:10.689Z,10.43
2017-09-09T05:25:13.309Z,9.63
2017-09-09T05:30:15.905Z,9.83
2017-09-09T05:35:19.262Z,10.17
2017-09-09T05:40:21.880Z,10.23
2017-09-09T05:45:24.506Z,10.10
2017-09-09T05:50:27.119Z,10.60
2017-09-09T05:55:30.512Z,12.30
2017-09-09T06:00:33.141Z,11.13
2017-09-09T06:05:36.556Z,10.53
2017-09-09T06:10:39.141Z,10.87
2017-09-09T06:15:41.745Z,10.77
2017-09-09T06:20:44.355Z,10.17
2017-09-09T06:25:46.986Z,11.07
2017-09-09T06:30:50.390Z,10.30
2017-09-09T06:35:53.017Z,9.93
2017-09-09T06:40:55.625Z,11.03
2017-09-09T06:45:58.260Z,10.70
2017-09-09T06:51:00.892Z,10.27
2017-09-09T06:56:03.503Z,10.33
2017-09-09T07:01:06.122Z,11.00
2017-09-09T07:06:08.713Z,11.23
2017-09-09T07:11:11.379Z,10.13
2017-09-09T07:16:14.792Z,10.90
2017-09-09T07:21:17.445Z,11.73
2017-09-09T07:26:20.109Z,10.70
2017-09-09T07:31:22.731Z,11.47
2017-09-09T07:36:25.346Z,10.33
2017-09-09T07:41:27.961Z,11.40
2017-09-09T07:46:30.602Z,9.50
2017-09-09T07:51:33.259Z,9.83
2017-09-09T07:56:35.912Z,9.50
2017-09-09T08:01:38.557Z,10.93
2017-09-09T08:06:41.194Z,11.13
2017-09-09T08:11:43.817Z,10.27
2017-09-09T08:16:46.428Z,10.87
2017-09-09T08:21:49.120Z,9.87
2017-09-09T08:26:51.742Z,10.10
2017-09-09T08:31:54.659Z,8.17
2017-09-09T08:36:57.345Z,8.50
2017-09-09T08:41:59.990Z,8.47
2017-09-09T08:47:02.590Z,8.50
2017-09-09T08:52:05.220Z,8.30
2017-09-09T08:57:07.825Z,8.30
2017-09-09T09:02:10.559Z,8.20
2017-09-09T09:07:13.224Z,8.70
2017-09-09T09:12:15.895Z,9.10
2017-09-09T09:17:18.546Z,8.20
2017-09-09T09:22:21.158Z,9.23
2017-09-09T09:27:23.814Z,7.67
2017-09-09T09:32:27.263Z,7.00
2017-09-09T09:37:29.892Z,6.43
2017-09-09T09:42:32.552Z,7.40
2017-09-09T09:47:35.208Z,8.00
2017-09-09T09:52:37.855Z,7.47
2017-09-09T09:57:40.561Z,7.70
2017-09-09T10:02:43.557Z,7.90
2017-09-09T10:07:46.226Z,7.00
2017-09-09T10:12:48.845Z,8.03
2017-09-09T10:17:51.489Z,8.70
2017-09-09T10:22:54.137Z,8.00
2017-09-09T10:27:56.818Z,7.40
2017-09-09T10:33:00.270Z,8.43
2017-09-09T10:38:03.688Z,8.17
2017-09-09T10:43:07.117Z,10.20
2017-09-09T10:48:10.510Z,6.90
2017-09-09T10:53:13.193Z,7.97
2017-09-09T10:58:15.819Z,7.87
2017-09-09T11:03:19.225Z,8.07
2017-09-09T11:08:22.642Z,7.13
2017-09-09T11:13:25.298Z,8.50
2017-09-09T11:18:27.965Z,7.40
2017-09-09T11:23:31.358Z,9.03
2017-09-09T11:28:34.002Z,6.37
2017-09-09T11:33:36.667Z,7.13
2017-09-09T11:38:39.523Z,7.70
2017-09-09T11:43:42.220Z,8.23
2017-09-09T11:48:44.891Z,7.37
2017-09-09T11:53:47.549Z,7.77
2017-09-09T11:58:50.249Z,7.30
2017-09-09T12:03:52.909Z,8.30
2017-09-09T12:08:55.570Z,7.83
2017-09-09T12:13:58.264Z,7.50
2017-09-09T12:19:00.931Z,7.47
2017-09-09T12:24:03.574Z,6.90
2017-09-09T12:29:06.202Z,7.30
2017-09-09T12:34:09.693Z,5.40
2017-09-09T12:39:12.333Z,5.20
2017-09-09T12:44:15.700Z,5.00
2017-09-09T12:49:18.352Z,4.57
2017-09-09T12:54:21.004Z,4.60
2017-09-09T12:59:23.618Z,4.33
2017-09-09T13:04:26.254Z,9.80
2017-09-09T13:09:29.638Z,4.67
2017-09-09T13:14:32.285Z,5.97
2017-09-09T13:19:34.904Z,5.53
2017-09-09T13:24:37.638Z,4.97
2017-09-09T13:29:40.270Z,5.63
2017-09-09T13:34:43.676Z,5.90
2017-09-09T13:39:46.382Z,5.53
2017-09-09T13:44:49.977Z,5.97
2017-09-09T13:49:52.649Z,5.73
2017-09-09T13:54:55.245Z,5.33
2017-09-09T13:59:57.858Z,4.70
2017-09-09T14:05:00.489Z,4.73
2017-09-09T14:10:03.122Z,3.90
2017-09-09T14:15:06.505Z,3.87
2017-09-09T14:20:09.134Z,4.97
2017-09-09T14:25:12.521Z,4.10
2017-09-09T14:30:15.134Z,5.50
2017-09-09T14:35:17.764Z,3.80
2017-09-09T14:40:20.382Z,4.80
2017-09-09T14:45:23.013Z,4.20
2017-09-09T14:50:25.623Z,4.23
2017-09-09T14:55:28.311Z,3.70
2017-09-09T15:00:30.969Z,3.77
2017-09-09T15:05:33.592Z,4.70
2017-09-09T15:10:36.271Z,3.93
2017-09-09T15:15:38.894Z,4.80
2017-09-09T15:20:41.535Z,3.87
2017-09-09T15:25:44.267Z,4.00
2017-09-09T15:30:46.873Z,4.03
2017-09-09T15:35:49.488Z,4.17
2017-09-09T15:40:52.088Z,3.63
2017-09-09T15:45:54.699Z,4.40
2017-09-09T15:50:57.296Z,4.80
2017-09-09T15:56:00.196Z,4.50
2017-09-09T16:01:02.839Z,4.30
2017-09-09T16:06:06.269Z,4.03
2017-09-09T16:11:09.658Z,3.83
2017-09-09T16:16:12.344Z,3.37
2017-09-09T16:21:15.796Z,4.00
2017-09-09T16:26:18.466Z,4.00
2017-09-09T16:31:21.055Z,4.77
2017-09-09T16:36:24.531Z,4.13
2017-09-09T16:41:27.266Z,4.70
2017-09-09T16:46:29.906Z,4.77
2017-09-09T16:51:32.563Z,4.63
2017-09-09T16:56:35.163Z,5.00
2017-09-09T17:01:37.789Z,4.70
2017-09-09T17:06:40.408Z,5.20
2017-09-09T17:11:43.035Z,4.60
2017-09-09T17:16:45.682Z,5.30
2017-09-09T17:21:48.299Z,5.43
2017-09-09T17:26:50.933Z,5.90
2017-09-09T17:31:53.568Z,5.60
2017-09-09T17:36:56.194Z,5.63
2017-09-09T17:41:58.829Z,7.10
2017-09-09T17:47:02.271Z,6.80
2017-09-09T17:52:04.909Z,6.57
2017-09-09T17:57:07.537Z,6.20
2017-09-09T18:02:10.170Z,9.03
2017-09-09T18:07:12.775Z,8.37
2017-09-09T18:12:15.441Z,7.47
2017-09-09T18:17:18.844Z,6.10
2017-09-09T18:22:21.479Z,6.20
2017-09-09T18:27:24.093Z,6.17
2017-09-09T18:32:26.727Z,6.07
2017-09-09T18:37:29.341Z,5.27
2017-09-09T18:42:31.946Z,5.37
2017-09-09T18:47:34.548Z,5.27
2017-09-09T18:52:38.029Z,5.53
2017-09-09T18:57:40.653Z,6.33
2017-09-09T19:02:43.294Z,7.07
2017-09-09T19:07:45.946Z,7.53
2017-09-09T19:12:48.568Z,7.00
2017-09-09T19:17:51.541Z,7.33
2017-09-09T19:22:54.164Z,6.87
2017-09-09T19:27:57.593Z,5.57
2017-09-09T19:33:01.743Z,7.40
2017-09-09T19:38:04.346Z,5.13
2017-09-09T19:43:06.963Z,5.17
2017-09-09T19:48:09.631Z,11.00
2017-09-09T19:53:12.255Z,4.73
2017-09-09T19:58:14.881Z,4.50
2017-09-09T20:03:17.481Z,5.23
2017-09-09T20:08:20.151Z,3.53
2017-09-09T20:13:22.813Z,3.43
2017-09-09T20:18:25.399Z,3.20
2017-09-09T20:23:27.981Z,3.40
2017-09-09T20:28:30.652Z,2.77
2017-09-09T20:33:33.255Z,2.60
2017-09-09T20:38:35.846Z,2.90
2017-09-09T20:43:39.270Z,2.47
2017-09-09T20:48:41.882Z,2.67
2017-09-09T20:53:44.498Z,2.73
2017-09-09T20:58:47.065Z,2.23
2017-09-09T21:03:49.709Z,2.60
2017-09-09T21:08:52.397Z,2.63
2017-09-09T21:13:54.993Z,2.23
2017-09-09T21:18:57.618Z,2.50
2017-09-09T21:24:00.276Z,3.10
2017-09-09T21:29:02.893Z,3.40
2017-09-09T21:34:06.282Z,3.07
2017-09-09T21:39:08.881Z,3.33
2017-09-09T21:44:11.505Z,4.90
2017-09-09T21:49:14.128Z,4.50
2017-09-09T21:54:16.760Z,4.77
2017-09-09T21:59:19.346Z,4.70
2017-09-09T22:04:21.949Z,23.50
2017-09-09T22:09:24.581Z,30.67
2017-09-09T22:14:27.211Z,9.00
2017-09-09T22:19:29.818Z,6.13
2017-09-09T22:24:32.411Z,6.00
2017-09-09T22:29:35.025Z,5.80
2017-09-09T22:34:37.694Z,6.37
2017-09-09T22:39:40.324Z,7.30
2017-09-09T22:44:42.938Z,7.30
2017-09-09T22:49:45.577Z,7.63
2017-09-09T22:54:48.447Z,8.37
2017-09-09T22:59:51.057Z,8.93
2017-09-09T23:04:53.707Z,8.60
2017-09-09T23:09:56.294Z,9.03
2017-09-09T23:14:59.673Z,9.57
2017-09-09T23:20:02.331Z,8.70
2017-09-09T23:25:05.714Z,9.50
2017-09-09T23:30:08.346Z,10.87
2017-09-09T23:35:10.975Z,9.83
2017-09-09T23:40:13.558Z,10.20
2017-09-09T23:45:16.194Z,11.10
2017-09-09T23:50:18.855Z,11.20
2017-09-09T23:55:21.479Z,10.80
